sensor_id;sensor_type;location;lat;lon;timestamp;P1;durP1;ratioP1;P2;durP2;ratioP2
17586;SDS011;8912;52.336;17.172;2022-10-29T00:02:07;14.70;;;11.87;;
17586;SDS011;8912;52.336;17.172;2022-10-29T00:04:36;15.70;;;12.07;;
17586;SDS011;8912;52.336;17.172;2022-10-29T00:07:05;16.37;;;11.70;;
17586;SDS011;8912;52.336;17.172;2022-10-29T00:09:33;19.13;;;13.37;;
17586;SDS011;8912;52.336;17.172;2022-10-29T00:12:04;16.73;;;12.03;;
17586;SDS011;8912;52.336;17.172;2022-10-29T00:14:33;23.27;;;12.87;;
17586;SDS011;8912;52.336;17.172;2022-10-29T00:17:02;16.07;;;12.17;;
17586;SDS011;8912;52.336;17.172;2022-10-29T00:19:31;17.87;;;11.57;;
17586;SDS011;8912;52.336;17.172;2022-10-29T00:22:00;20.33;;;11.97;;
17586;SDS011;8912;52.336;17.172;2022-10-29T00:24:29;19.87;;;12.47;;
17586;SDS011;8912;52.336;17.172;2022-10-29T00:26:57;21.73;;;11.57;;
17586;SDS011;8912;52.336;17.172;2022-10-29T00:29:28;15.03;;;10.97;;
17586;SDS011;8912;52.336;17.172;2022-10-29T00:31:57;16.43;;;12.10;;
17586;SDS011;8912;52.336;17.172;2022-10-29T00:34:26;14.40;;;10.73;;
17586;SDS011;8912;52.336;17.172;2022-10-29T00:36:54;22.57;;;10.73;;
17586;SDS011;8912;52.336;17.172;2022-10-29T00:39:24;12.97;;;10.30;;
17586;SDS011;8912;52.336;17.172;2022-10-29T00:41:52;18.97;;;11.37;;
17586;SDS011;8912;52.336;17.172;2022-10-29T00:44:24;14.77;;;11.23;;
17586;SDS011;8912;52.336;17.172;2022-10-29T00:46:59;16.30;;;11.07;;
17586;SDS011;8912;52.336;17.172;2022-10-29T00:49:31;12.90;;;10.30;;
17586;SDS011;8912;52.336;17.172;2022-10-29T00:52:02;16.30;;;10.53;;
17586;SDS011;8912;52.336;17.172;2022-10-29T00:54:32;20.87;;;11.13;;
17586;SDS011;8912;52.336;17.172;2022-10-29T00:57:06;20.93;;;10.60;;
17586;SDS011;8912;52.336;17.172;2022-10-29T00:59:39;16.37;;;10.67;;
17586;SDS011;8912;52.336;17.172;2022-10-29T01:02:09;11.93;;;9.53;;
17586;SDS011;8912;52.336;17.172;2022-10-29T01:04:38;16.33;;;10.40;;
17586;SDS011;8912;52.336;17.172;2022-10-29T01:07:08;13.50;;;9.97;;
17586;SDS011;8912;52.336;17.172;2022-10-29T01:09:38;15.37;;;10.77;;
17586;SDS011;8912;52.336;17.172;2022-10-29T01:12:11;16.67;;;9.40;;
17586;SDS011;8912;52.336;17.172;2022-10-29T01:14:59;13.40;;;9.80;;
17586;SDS011;8912;52.336;17.172;2022-10-29T01:17:39;14.30;;;9.80;;
17586;SDS011;8912;52.336;17.172;2022-10-29T01:20:22;17.30;;;9.83;;
17586;SDS011;8912;52.336;17.172;2022-10-29T01:23:10;17.67;;;10.50;;
17586;SDS011;8912;52.336;17.172;2022-10-29T01:25:59;18.47;;;10.10;;
17586;SDS011;8912;52.336;17.172;2022-10-29T01:28:53;14.30;;;10.47;;
17586;SDS011;8912;52.336;17.172;2022-10-29T01:31:39;19.63;;;10.43;;
17586;SDS011;8912;52.336;17.172;2022-10-29T01:34:14;12.73;;;10.17;;
17586;SDS011;8912;52.336;17.172;2022-10-29T01:36:51;17.80;;;10.47;;
17586;SDS011;8912;52.336;17.172;2022-10-29T01:39:26;14.50;;;9.40;;
17586;SDS011;8912;52.336;17.172;2022-10-29T01:42:04;14.20;;;10.07;;
17586;SDS011;8912;52.336;17.172;2022-10-29T01:44:40;13.53;;;9.30;;
17586;SDS011;8912;52.336;17.172;2022-10-29T01:47:17;16.97;;;10.00;;
17586;SDS011;8912;52.336;17.172;2022-10-29T01:49:47;13.17;;;9.20;;
17586;SDS011;8912;52.336;17.172;2022-10-29T01:52:20;13.87;;;9.60;;
17586;SDS011;8912;52.336;17.172;2022-10-29T01:54:51;14.43;;;8.80;;
17586;SDS011;8912;52.336;17.172;2022-10-29T01:57:27;17.20;;;9.93;;
17586;SDS011;8912;52.336;17.172;2022-10-29T01:59:59;14.23;;;8.83;;
17586;SDS011;8912;52.336;17.172;2022-10-29T02:02:56;13.77;;;8.53;;
17586;SDS011;8912;52.336;17.172;2022-10-29T02:05:37;16.73;;;9.27;;
17586;SDS011;8912;52.336;17.172;2022-10-29T02:08:13;13.50;;;8.57;;
17586;SDS011;8912;52.336;17.172;2022-10-29T02:10:50;14.27;;;8.77;;
17586;SDS011;8912;52.336;17.172;2022-10-29T02:13:26;15.43;;;9.00;;
17586;SDS011;8912;52.336;17.172;2022-10-29T02:15:59;15.53;;;8.97;;
17586;SDS011;8912;52.336;17.172;2022-10-29T02:18:39;13.60;;;8.83;;
17586;SDS011;8912;52.336;17.172;2022-10-29T02:21:09;12.13;;;8.47;;
17586;SDS011;8912;52.336;17.172;2022-10-29T02:23:37;14.37;;;8.90;;
17586;SDS011;8912;52.336;17.172;2022-10-29T02:26:06;15.47;;;8.03;;
17586;SDS011;8912;52.336;17.172;2022-10-29T02:28:35;15.27;;;9.20;;
17586;SDS011;8912;52.336;17.172;2022-10-29T02:31:04;14.90;;;9.10;;
17586;SDS011;8912;52.336;17.172;2022-10-29T02:33:33;13.33;;;8.57;;
17586;SDS011;8912;52.336;17.172;2022-10-29T02:36:04;10.87;;;8.63;;
17586;SDS011;8912;52.336;17.172;2022-10-29T02:38:33;13.73;;;8.47;;
17586;SDS011;8912;52.336;17.172;2022-10-29T02:41:02;15.30;;;9.10;;
17586;SDS011;8912;52.336;17.172;2022-10-29T02:43:31;12.47;;;8.23;;
17586;SDS011;8912;52.336;17.172;2022-10-29T02:46:10;11.83;;;8.80;;
17586;SDS011;8912;52.336;17.172;2022-10-29T02:48:43;12.27;;;8.00;;
17586;SDS011;8912;52.336;17.172;2022-10-29T02:51:14;12.57;;;8.27;;
17586;SDS011;8912;52.336;17.172;2022-10-29T02:53:44;13.07;;;8.00;;
17586;SDS011;8912;52.336;17.172;2022-10-29T02:56:13;12.23;;;8.40;;
17586;SDS011;8912;52.336;17.172;2022-10-29T02:58:42;14.33;;;8.13;;
17586;SDS011;8912;52.336;17.172;2022-10-29T03:01:11;10.93;;;7.43;;
17586;SDS011;8912;52.336;17.172;2022-10-29T03:03:39;13.00;;;7.73;;
17586;SDS011;8912;52.336;17.172;2022-10-29T03:06:10;8.17;;;7.30;;
17586;SDS011;8912;52.336;17.172;2022-10-29T03:08:42;10.60;;;7.77;;
17586;SDS011;8912;52.336;17.172;2022-10-29T03:11:11;12.83;;;7.50;;
17586;SDS011;8912;52.336;17.172;2022-10-29T03:13:40;10.90;;;7.40;;
17586;SDS011;8912;52.336;17.172;2022-10-29T03:16:09;8.47;;;7.40;;
17586;SDS011;8912;52.336;17.172;2022-10-29T03:18:38;12.80;;;7.97;;
17586;SDS011;8912;52.336;17.172;2022-10-29T03:21:07;15.93;;;8.10;;
17586;SDS011;8912;52.336;17.172;2022-10-29T03:23:36;9.47;;;6.97;;
17586;SDS011;8912;52.336;17.172;2022-10-29T03:26:07;11.60;;;7.20;;
17586;SDS011;8912;52.336;17.172;2022-10-29T03:28:36;11.43;;;7.60;;
17586;SDS011;8912;52.336;17.172;2022-10-29T03:31:05;10.10;;;7.07;;
17586;SDS011;8912;52.336;17.172;2022-10-29T03:33:34;12.50;;;7.30;;
17586;SDS011;8912;52.336;17.172;2022-10-29T03:36:04;12.53;;;7.33;;
17586;SDS011;8912;52.336;17.172;2022-10-29T03:38:34;9.00;;;6.43;;
17586;SDS011;8912;52.336;17.172;2022-10-29T03:41:03;11.73;;;7.00;;
17586;SDS011;8912;52.336;17.172;2022-10-29T03:43:38;13.37;;;7.10;;
17586;SDS011;8912;52.336;17.172;2022-10-29T03:46:07;10.20;;;7.37;;
17586;SDS011;8912;52.336;17.172;2022-10-29T03:48:36;12.03;;;6.90;;
17586;SDS011;8912;52.336;17.172;2022-10-29T03:51:05;11.00;;;7.13;;
17586;SDS011;8912;52.336;17.172;2022-10-29T03:53:34;13.93;;;7.00;;
17586;SDS011;8912;52.336;17.172;2022-10-29T03:56:04;11.27;;;7.87;;
17586;SDS011;8912;52.336;17.172;2022-10-29T03:58:34;13.93;;;7.97;;
17586;SDS011;8912;52.336;17.172;2022-10-29T04:01:04;9.53;;;6.93;;
17586;SDS011;8912;52.336;17.172;2022-10-29T04:03:35;13.93;;;7.23;;
17586;SDS011;8912;52.336;17.172;2022-10-29T04:06:08;12.63;;;7.23;;
17586;SDS011;8912;52.336;17.172;2022-10-29T04:08:38;13.07;;;6.93;;
17586;SDS011;8912;52.336;17.172;2022-10-29T04:11:08;14.93;;;8.20;;
17586;SDS011;8912;52.336;17.172;2022-10-29T04:13:38;13.60;;;7.10;;
17586;SDS011;8912;52.336;17.172;2022-10-29T04:16:08;13.07;;;7.57;;
17586;SDS011;8912;52.336;17.172;2022-10-29T04:18:37;12.67;;;7.20;;
17586;SDS011;8912;52.336;17.172;2022-10-29T04:21:06;11.40;;;6.93;;
17586;SDS011;8912;52.336;17.172;2022-10-29T04:23:55;13.30;;;7.10;;
17586;SDS011;8912;52.336;17.172;2022-10-29T04:26:44;13.53;;;7.30;;
17586;SDS011;8912;52.336;17.172;2022-10-29T04:29:33;10.67;;;7.13;;
17586;SDS011;8912;52.336;17.172;2022-10-29T04:32:04;10.47;;;6.87;;
17586;SDS011;8912;52.336;17.172;2022-10-29T04:34:33;14.50;;;7.67;;
17586;SDS011;8912;52.336;17.172;2022-10-29T04:37:01;8.87;;;7.20;;
17586;SDS011;8912;52.336;17.172;2022-10-29T04:39:30;9.27;;;7.13;;
17586;SDS011;8912;52.336;17.172;2022-10-29T04:41:59;12.47;;;7.40;;
17586;SDS011;8912;52.336;17.172;2022-10-29T04:44:28;16.17;;;7.27;;
17586;SDS011;8912;52.336;17.172;2022-10-29T04:46:57;13.93;;;7.13;;
17586;SDS011;8912;52.336;17.172;2022-10-29T04:49:27;9.73;;;7.23;;
17586;SDS011;8912;52.336;17.172;2022-10-29T04:51:56;11.47;;;6.97;;
17586;SDS011;8912;52.336;17.172;2022-10-29T04:54:25;14.03;;;7.60;;
17586;SDS011;8912;52.336;17.172;2022-10-29T04:56:54;12.13;;;7.83;;
17586;SDS011;8912;52.336;17.172;2022-10-29T04:59:23;13.27;;;7.83;;
17586;SDS011;8912;52.336;17.172;2022-10-29T05:01:51;12.97;;;8.00;;
17586;SDS011;8912;52.336;17.172;2022-10-29T05:04:20;11.97;;;8.57;;
17586;SDS011;8912;52.336;17.172;2022-10-29T05:06:50;31.00;;;18.40;;
17586;SDS011;8912;52.336;17.172;2022-10-29T05:09:19;22.37;;;14.60;;
17586;SDS011;8912;52.336;17.172;2022-10-29T05:11:48;14.17;;;10.43;;
17586;SDS011;8912;52.336;17.172;2022-10-29T05:14:17;20.63;;;7.77;;
17586;SDS011;8912;52.336;17.172;2022-10-29T05:16:45;12.60;;;9.30;;
17586;SDS011;8912;52.336;17.172;2022-10-29T05:19:14;11.63;;;7.83;;
17586;SDS011;8912;52.336;17.172;2022-10-29T05:21:43;14.83;;;7.87;;
17586;SDS011;8912;52.336;17.172;2022-10-29T05:24:14;15.87;;;7.70;;
17586;SDS011;8912;52.336;17.172;2022-10-29T05:26:42;13.53;;;7.10;;
17586;SDS011;8912;52.336;17.172;2022-10-29T05:29:11;10.50;;;7.33;;
17586;SDS011;8912;52.336;17.172;2022-10-29T05:31:40;10.30;;;7.13;;
17586;SDS011;8912;52.336;17.172;2022-10-29T05:34:08;12.40;;;6.90;;
17586;SDS011;8912;52.336;17.172;2022-10-29T05:36:37;9.60;;;7.27;;
17586;SDS011;8912;52.336;17.172;2022-10-29T05:39:06;14.60;;;7.70;;
17586;SDS011;8912;52.336;17.172;2022-10-29T05:41:37;14.50;;;8.00;;
17586;SDS011;8912;52.336;17.172;2022-10-29T05:44:05;14.17;;;7.67;;
17586;SDS011;8912;52.336;17.172;2022-10-29T05:46:34;10.77;;;7.83;;
17586;SDS011;8912;52.336;17.172;2022-10-29T05:49:03;14.83;;;8.90;;
17586;SDS011;8912;52.336;17.172;2022-10-29T05:51:32;11.07;;;7.63;;
17586;SDS011;8912;52.336;17.172;2022-10-29T05:54:01;17.13;;;8.47;;
17586;SDS011;8912;52.336;17.172;2022-10-29T05:56:30;12.13;;;8.00;;
17586;SDS011;8912;52.336;17.172;2022-10-29T05:59:01;16.33;;;9.10;;
17586;SDS011;8912;52.336;17.172;2022-10-29T06:01:30;12.57;;;8.17;;
17586;SDS011;8912;52.336;17.172;2022-10-29T06:03:59;15.23;;;8.77;;
17586;SDS011;8912;52.336;17.172;2022-10-29T06:06:28;12.67;;;7.90;;
17586;SDS011;8912;52.336;17.172;2022-10-29T06:08:57;13.73;;;7.80;;
17586;SDS011;8912;52.336;17.172;2022-10-29T06:11:26;12.77;;;7.70;;
17586;SDS011;8912;52.336;17.172;2022-10-29T06:13:55;14.57;;;7.83;;
17586;SDS011;8912;52.336;17.172;2022-10-29T06:16:25;14.20;;;8.53;;
17586;SDS011;8912;52.336;17.172;2022-10-29T06:18:54;15.00;;;7.47;;
17586;SDS011;8912;52.336;17.172;2022-10-29T06:21:23;12.43;;;7.87;;
17586;SDS011;8912;52.336;17.172;2022-10-29T06:23:52;15.50;;;7.50;;
17586;SDS011;8912;52.336;17.172;2022-10-29T06:26:21;12.27;;;8.07;;
17586;SDS011;8912;52.336;17.172;2022-10-29T06:28:50;15.87;;;9.17;;
17586;SDS011;8912;52.336;17.172;2022-10-29T06:31:19;12.93;;;8.20;;
17586;SDS011;8912;52.336;17.172;2022-10-29T06:33:49;14.57;;;8.57;;
17586;SDS011;8912;52.336;17.172;2022-10-29T06:36:18;15.67;;;8.50;;
17586;SDS011;8912;52.336;17.172;2022-10-29T06:38:47;15.03;;;8.13;;
17586;SDS011;8912;52.336;17.172;2022-10-29T06:41:16;19.30;;;8.20;;
17586;SDS011;8912;52.336;17.172;2022-10-29T06:43:50;10.10;;;7.60;;
17586;SDS011;8912;52.336;17.172;2022-10-29T06:46:19;15.47;;;7.83;;
17586;SDS011;8912;52.336;17.172;2022-10-29T06:48:50;16.57;;;7.63;;
17586;SDS011;8912;52.336;17.172;2022-10-29T06:51:18;17.00;;;8.40;;
17586;SDS011;8912;52.336;17.172;2022-10-29T06:53:54;18.63;;;9.30;;
17586;SDS011;8912;52.336;17.172;2022-10-29T06:56:22;14.53;;;8.00;;
17586;SDS011;8912;52.336;17.172;2022-10-29T06:58:51;15.43;;;8.83;;
17586;SDS011;8912;52.336;17.172;2022-10-29T07:01:20;12.40;;;8.73;;
17586;SDS011;8912;52.336;17.172;2022-10-29T07:03:54;16.80;;;8.83;;
17586;SDS011;8912;52.336;17.172;2022-10-29T07:06:22;16.70;;;8.73;;
17586;SDS011;8912;52.336;17.172;2022-10-29T07:08:51;16.43;;;8.47;;
17586;SDS011;8912;52.336;17.172;2022-10-29T07:11:20;16.13;;;8.23;;
17586;SDS011;8912;52.336;17.172;2022-10-29T07:13:49;16.07;;;8.77;;
17586;SDS011;8912;52.336;17.172;2022-10-29T07:16:17;13.37;;;9.00;;
17586;SDS011;8912;52.336;17.172;2022-10-29T07:18:46;14.53;;;8.70;;
17586;SDS011;8912;52.336;17.172;2022-10-29T07:21:17;14.57;;;8.73;;
17586;SDS011;8912;52.336;17.172;2022-10-29T07:23:45;17.10;;;9.17;;
17586;SDS011;8912;52.336;17.172;2022-10-29T07:26:14;18.13;;;9.90;;
17586;SDS011;8912;52.336;17.172;2022-10-29T07:28:43;17.23;;;9.87;;
17586;SDS011;8912;52.336;17.172;2022-10-29T07:31:11;21.40;;;14.37;;
17586;SDS011;8912;52.336;17.172;2022-10-29T07:33:40;27.30;;;14.93;;
17586;SDS011;8912;52.336;17.172;2022-10-29T07:36:09;21.23;;;10.40;;
17586;SDS011;8912;52.336;17.172;2022-10-29T07:38:40;15.30;;;10.23;;
17586;SDS011;8912;52.336;17.172;2022-10-29T07:41:08;18.27;;;9.13;;
17586;SDS011;8912;52.336;17.172;2022-10-29T07:43:37;25.63;;;9.13;;
17586;SDS011;8912;52.336;17.172;2022-10-29T07:46:06;20.87;;;9.33;;
17586;SDS011;8912;52.336;17.172;2022-10-29T07:48:35;14.53;;;9.00;;
17586;SDS011;8912;52.336;17.172;2022-10-29T07:51:03;15.13;;;8.20;;
17586;SDS011;8912;52.336;17.172;2022-10-29T07:53:32;13.50;;;8.93;;
17586;SDS011;8912;52.336;17.172;2022-10-29T07:56:03;16.40;;;9.13;;
17586;SDS011;8912;52.336;17.172;2022-10-29T07:58:32;16.17;;;8.63;;
17586;SDS011;8912;52.336;17.172;2022-10-29T08:01:01;11.23;;;7.97;;
17586;SDS011;8912;52.336;17.172;2022-10-29T08:03:29;13.47;;;8.07;;
17586;SDS011;8912;52.336;17.172;2022-10-29T08:05:59;14.07;;;8.57;;
17586;SDS011;8912;52.336;17.172;2022-10-29T08:08:27;13.33;;;8.67;;
17586;SDS011;8912;52.336;17.172;2022-10-29T08:10:58;13.63;;;8.37;;
17586;SDS011;8912;52.336;17.172;2022-10-29T08:13:29;18.70;;;9.23;;
17586;SDS011;8912;52.336;17.172;2022-10-29T08:15:58;15.07;;;8.53;;
17586;SDS011;8912;52.336;17.172;2022-10-29T08:18:27;19.33;;;8.97;;
17586;SDS011;8912;52.336;17.172;2022-10-29T08:20:56;18.10;;;8.67;;
17586;SDS011;8912;52.336;17.172;2022-10-29T08:23:25;14.37;;;8.17;;
17586;SDS011;8912;52.336;17.172;2022-10-29T08:25:55;11.67;;;8.30;;
17586;SDS011;8912;52.336;17.172;2022-10-29T08:28:24;14.77;;;8.43;;
17586;SDS011;8912;52.336;17.172;2022-10-29T08:31:00;18.63;;;8.47;;
17586;SDS011;8912;52.336;17.172;2022-10-29T08:33:29;13.83;;;8.43;;
17586;SDS011;8912;52.336;17.172;2022-10-29T08:35:58;15.40;;;8.30;;
17586;SDS011;8912;52.336;17.172;2022-10-29T08:38:26;14.20;;;8.57;;
17586;SDS011;8912;52.336;17.172;2022-10-29T08:41:00;21.33;;;8.67;;
17586;SDS011;8912;52.336;17.172;2022-10-29T08:43:57;14.93;;;7.93;;
17586;SDS011;8912;52.336;17.172;2022-10-29T08:46:41;24.03;;;8.47;;
17586;SDS011;8912;52.336;17.172;2022-10-29T08:49:13;19.13;;;9.00;;
17586;SDS011;8912;52.336;17.172;2022-10-29T08:51:47;13.80;;;8.43;;
17586;SDS011;8912;52.336;17.172;2022-10-29T08:54:20;19.33;;;9.00;;
17586;SDS011;8912;52.336;17.172;2022-10-29T08:56:58;18.03;;;8.70;;
17586;SDS011;8912;52.336;17.172;2022-10-29T08:59:34;19.07;;;8.63;;
17586;SDS011;8912;52.336;17.172;2022-10-29T09:02:12;17.47;;;8.30;;
17586;SDS011;8912;52.336;17.172;2022-10-29T09:04:43;16.70;;;8.30;;
17586;SDS011;8912;52.336;17.172;2022-10-29T09:07:19;14.77;;;8.90;;
17586;SDS011;8912;52.336;17.172;2022-10-29T09:10:07;15.80;;;8.47;;
17586;SDS011;8912;52.336;17.172;2022-10-29T09:12:46;16.53;;;7.87;;
17586;SDS011;8912;52.336;17.172;2022-10-29T09:18:28;18.77;;;8.97;;
17586;SDS011;8912;52.336;17.172;2022-10-29T09:21:10;14.93;;;8.23;;
17586;SDS011;8912;52.336;17.172;2022-10-29T09:23:53;15.73;;;8.60;;
17586;SDS011;8912;52.336;17.172;2022-10-29T09:26:32;16.33;;;7.73;;
17586;SDS011;8912;52.336;17.172;2022-10-29T09:29:15;15.30;;;8.10;;
17586;SDS011;8912;52.336;17.172;2022-10-29T09:32:00;15.37;;;6.87;;
17586;SDS011;8912;52.336;17.172;2022-10-29T09:34:35;13.55;;;7.03;;
17586;SDS011;8912;52.336;17.172;2022-10-29T09:37:10;13.47;;;6.73;;
17586;SDS011;8912;52.336;17.172;2022-10-29T09:39:43;17.33;;;6.80;;
17586;SDS011;8912;52.336;17.172;2022-10-29T09:42:14;12.47;;;6.97;;
17586;SDS011;8912;52.336;17.172;2022-10-29T09:44:48;17.47;;;7.40;;
17586;SDS011;8912;52.336;17.172;2022-10-29T09:47:23;11.30;;;7.03;;
17586;SDS011;8912;52.336;17.172;2022-10-29T09:52:53;11.93;;;6.87;;
17586;SDS011;8912;52.336;17.172;2022-10-29T09:55:23;13.37;;;6.83;;
17586;SDS011;8912;52.336;17.172;2022-10-29T09:57:54;11.30;;;6.30;;
17586;SDS011;8912;52.336;17.172;2022-10-29T10:00:24;16.70;;;6.68;;
17586;SDS011;8912;52.336;17.172;2022-10-29T10:02:56;12.40;;;6.50;;
17586;SDS011;8912;52.336;17.172;2022-10-29T10:05:33;8.70;;;6.70;;
17586;SDS011;8912;52.336;17.172;2022-10-29T10:08:22;12.75;;;6.60;;
17586;SDS011;8912;52.336;17.172;2022-10-29T10:10:51;10.48;;;6.63;;
17586;SDS011;8912;52.336;17.172;2022-10-29T10:13:22;12.57;;;6.50;;
17586;SDS011;8912;52.336;17.172;2022-10-29T10:15:54;16.38;;;6.82;;
17586;SDS011;8912;52.336;17.172;2022-10-29T10:18:25;12.70;;;7.05;;
17586;SDS011;8912;52.336;17.172;2022-10-29T10:21:01;12.32;;;6.70;;
17586;SDS011;8912;52.336;17.172;2022-10-29T10:23:40;11.25;;;6.60;;
17586;SDS011;8912;52.336;17.172;2022-10-29T10:26:25;15.57;;;6.72;;
17586;SDS011;8912;52.336;17.172;2022-10-29T10:29:02;15.40;;;6.65;;
17586;SDS011;8912;52.336;17.172;2022-10-29T10:31:38;12.15;;;6.88;;
17586;SDS011;8912;52.336;17.172;2022-10-29T10:34:08;11.23;;;5.60;;
17586;SDS011;8912;52.336;17.172;2022-10-29T10:36:45;12.60;;;7.00;;
17586;SDS011;8912;52.336;17.172;2022-10-29T10:39:25;14.38;;;6.13;;
17586;SDS011;8912;52.336;17.172;2022-10-29T10:41:57;13.90;;;4.85;;
17586;SDS011;8912;52.336;17.172;2022-10-29T10:44:28;10.68;;;5.78;;
17586;SDS011;8912;52.336;17.172;2022-10-29T10:46:58;9.88;;;4.53;;
17586;SDS011;8912;52.336;17.172;2022-10-29T10:49:33;7.20;;;4.35;;
17586;SDS011;8912;52.336;17.172;2022-10-29T10:52:10;9.63;;;4.53;;
17586;SDS011;8912;52.336;17.172;2022-10-29T10:54:44;10.10;;;4.93;;
17586;SDS011;8912;52.336;17.172;2022-10-29T10:57:21;8.63;;;4.95;;
17586;SDS011;8912;52.336;17.172;2022-10-29T10:59:56;8.00;;;4.85;;
17586;SDS011;8912;52.336;17.172;2022-10-29T11:02:34;17.77;;;5.57;;
17586;SDS011;8912;52.336;17.172;2022-10-29T11:05:13;18.95;;;5.25;;
17586;SDS011;8912;52.336;17.172;2022-10-29T11:07:47;10.05;;;4.93;;
17586;SDS011;8912;52.336;17.172;2022-10-29T11:10:23;14.05;;;5.32;;
17586;SDS011;8912;52.336;17.172;2022-10-29T11:12:59;8.05;;;4.63;;
17586;SDS011;8912;52.336;17.172;2022-10-29T11:15:32;13.57;;;5.53;;
17586;SDS011;8912;52.336;17.172;2022-10-29T11:18:10;11.55;;;5.18;;
17586;SDS011;8912;52.336;17.172;2022-10-29T11:20:49;19.23;;;4.95;;
17586;SDS011;8912;52.336;17.172;2022-10-29T11:23:37;9.02;;;4.93;;
17586;SDS011;8912;52.336;17.172;2022-10-29T11:26:13;13.98;;;5.60;;
17586;SDS011;8912;52.336;17.172;2022-10-29T11:28:48;7.28;;;4.70;;
17586;SDS011;8912;52.336;17.172;2022-10-29T11:31:24;7.72;;;4.75;;
17586;SDS011;8912;52.336;17.172;2022-10-29T11:34:02;12.23;;;5.05;;
17586;SDS011;8912;52.336;17.172;2022-10-29T11:36:38;10.88;;;4.82;;
17586;SDS011;8912;52.336;17.172;2022-10-29T11:39:12;9.82;;;4.78;;
17586;SDS011;8912;52.336;17.172;2022-10-29T11:41:47;12.80;;;5.00;;
17586;SDS011;8912;52.336;17.172;2022-10-29T11:44:22;10.43;;;4.32;;
17586;SDS011;8912;52.336;17.172;2022-10-29T11:46:57;12.57;;;4.25;;
17586;SDS011;8912;52.336;17.172;2022-10-29T11:49:41;10.75;;;4.28;;
17586;SDS011;8912;52.336;17.172;2022-10-29T11:52:25;7.57;;;3.95;;
17586;SDS011;8912;52.336;17.172;2022-10-29T11:55:06;10.90;;;3.80;;
17586;SDS011;8912;52.336;17.172;2022-10-29T11:57:48;8.38;;;4.05;;
17586;SDS011;8912;52.336;17.172;2022-10-29T12:00:22;8.13;;;3.78;;
17586;SDS011;8912;52.336;17.172;2022-10-29T12:03:06;7.13;;;3.20;;
17586;SDS011;8912;52.336;17.172;2022-10-29T12:05:52;13.07;;;3.85;;
17586;SDS011;8912;52.336;17.172;2022-10-29T12:08:35;14.20;;;4.07;;
17586;SDS011;8912;52.336;17.172;2022-10-29T12:11:18;7.45;;;3.83;;
17586;SDS011;8912;52.336;17.172;2022-10-29T12:13:55;6.82;;;3.90;;
17586;SDS011;8912;52.336;17.172;2022-10-29T12:16:32;13.30;;;4.03;;
17586;SDS011;8912;52.336;17.172;2022-10-29T12:19:12;5.78;;;3.22;;
17586;SDS011;8912;52.336;17.172;2022-10-29T12:21:49;6.47;;;3.33;;
17586;SDS011;8912;52.336;17.172;2022-10-29T12:24:28;9.23;;;3.50;;
17586;SDS011;8912;52.336;17.172;2022-10-29T12:27:09;11.20;;;3.80;;
17586;SDS011;8912;52.336;17.172;2022-10-29T12:29:46;7.97;;;4.27;;
17586;SDS011;8912;52.336;17.172;2022-10-29T12:32:21;8.33;;;3.73;;
17586;SDS011;8912;52.336;17.172;2022-10-29T12:34:57;9.35;;;4.28;;
17586;SDS011;8912;52.336;17.172;2022-10-29T12:37:32;7.43;;;4.15;;
17586;SDS011;8912;52.336;17.172;2022-10-29T12:40:12;8.67;;;3.77;;
17586;SDS011;8912;52.336;17.172;2022-10-29T12:42:46;8.38;;;4.03;;
17586;SDS011;8912;52.336;17.172;2022-10-29T12:45:21;11.18;;;3.65;;
17586;SDS011;8912;52.336;17.172;2022-10-29T12:47:59;11.05;;;4.18;;
17586;SDS011;8912;52.336;17.172;2022-10-29T12:50:38;8.93;;;4.45;;
17586;SDS011;8912;52.336;17.172;2022-10-29T12:53:16;8.05;;;3.50;;
17586;SDS011;8912;52.336;17.172;2022-10-29T12:55:55;8.68;;;4.22;;
17586;SDS011;8912;52.336;17.172;2022-10-29T12:58:57;8.68;;;4.07;;
17586;SDS011;8912;52.336;17.172;2022-10-29T13:02:02;10.32;;;4.40;;
17586;SDS011;8912;52.336;17.172;2022-10-29T13:05:12;8.35;;;4.03;;
17586;SDS011;8912;52.336;17.172;2022-10-29T13:10:52;10.43;;;4.00;;
17586;SDS011;8912;52.336;17.172;2022-10-29T13:13:46;9.43;;;4.20;;
17586;SDS011;8912;52.336;17.172;2022-10-29T13:16:24;9.02;;;3.75;;
17586;SDS011;8912;52.336;17.172;2022-10-29T13:19:07;10.90;;;4.43;;
17586;SDS011;8912;52.336;17.172;2022-10-29T13:22:02;10.15;;;4.45;;
17586;SDS011;8912;52.336;17.172;2022-10-29T13:34:09;7.43;;;4.07;;
17586;SDS011;8912;52.336;17.172;2022-10-29T13:36:37;7.45;;;4.40;;
17586;SDS011;8912;52.336;17.172;2022-10-29T13:39:15;9.23;;;4.70;;
17586;SDS011;8912;52.336;17.172;2022-10-29T13:41:49;9.68;;;4.53;;
17586;SDS011;8912;52.336;17.172;2022-10-29T13:44:20;11.55;;;4.88;;
17586;SDS011;8912;52.336;17.172;2022-10-29T13:46:52;10.10;;;4.85;;
17586;SDS011;8912;52.336;17.172;2022-10-29T13:49:28;13.48;;;4.93;;
17586;SDS011;8912;52.336;17.172;2022-10-29T13:51:59;14.38;;;5.40;;
17586;SDS011;8912;52.336;17.172;2022-10-29T13:54:34;9.90;;;4.93;;
17586;SDS011;8912;52.336;17.172;2022-10-29T13:57:08;9.02;;;4.40;;
17586;SDS011;8912;52.336;17.172;2022-10-29T13:59:45;13.68;;;5.15;;
17586;SDS011;8912;52.336;17.172;2022-10-29T14:05:22;11.85;;;4.75;;
17586;SDS011;8912;52.336;17.172;2022-10-29T14:07:55;10.63;;;5.85;;
17586;SDS011;8912;52.336;17.172;2022-10-29T14:10:29;18.70;;;5.80;;
17586;SDS011;8912;52.336;17.172;2022-10-29T14:13:05;15.85;;;6.95;;
17586;SDS011;8912;52.336;17.172;2022-10-29T14:15:38;12.02;;;5.55;;
17586;SDS011;8912;52.336;17.172;2022-10-29T14:18:27;7.82;;;4.72;;
17586;SDS011;8912;52.336;17.172;2022-10-29T14:20:59;9.43;;;4.80;;
17586;SDS011;8912;52.336;17.172;2022-10-29T14:23:29;12.00;;;5.65;;
17586;SDS011;8912;52.336;17.172;2022-10-29T14:25:59;7.13;;;4.85;;
17586;SDS011;8912;52.336;17.172;2022-10-29T14:28:30;17.13;;;6.40;;
17586;SDS011;8912;52.336;17.172;2022-10-29T14:31:00;11.68;;;6.68;;
17586;SDS011;8912;52.336;17.172;2022-10-29T14:33:34;10.32;;;6.35;;
17586;SDS011;8912;52.336;17.172;2022-10-29T14:36:06;10.55;;;6.10;;
17586;SDS011;8912;52.336;17.172;2022-10-29T14:38:40;10.93;;;6.13;;
17586;SDS011;8912;52.336;17.172;2022-10-29T14:41:13;11.68;;;5.47;;
17586;SDS011;8912;52.336;17.172;2022-10-29T14:43:43;9.27;;;6.20;;
17586;SDS011;8912;52.336;17.172;2022-10-29T14:46:18;13.93;;;5.13;;
17586;SDS011;8912;52.336;17.172;2022-10-29T14:48:53;12.63;;;5.60;;
17586;SDS011;8912;52.336;17.172;2022-10-29T14:51:28;11.97;;;5.30;;
17586;SDS011;8912;52.336;17.172;2022-10-29T14:54:04;9.05;;;5.03;;
17586;SDS011;8912;52.336;17.172;2022-10-29T14:56:36;11.93;;;5.82;;
17586;SDS011;8912;52.336;17.172;2022-10-29T14:59:09;11.97;;;5.73;;
17586;SDS011;8912;52.336;17.172;2022-10-29T15:01:49;11.05;;;5.57;;
17586;SDS011;8912;52.336;17.172;2022-10-29T15:04:28;8.37;;;5.03;;
17586;SDS011;8912;52.336;17.172;2022-10-29T15:07:14;11.40;;;5.28;;
17586;SDS011;8912;52.336;17.172;2022-10-29T15:10:07;9.03;;;5.20;;
17586;SDS011;8912;52.336;17.172;2022-10-29T15:12:45;12.93;;;5.93;;
17586;SDS011;8912;52.336;17.172;2022-10-29T15:15:21;14.87;;;5.90;;
17586;SDS011;8912;52.336;17.172;2022-10-29T15:17:53;11.33;;;5.73;;
17586;SDS011;8912;52.336;17.172;2022-10-29T15:20:28;9.73;;;6.00;;
17586;SDS011;8912;52.336;17.172;2022-10-29T15:23:02;12.67;;;6.10;;
17586;SDS011;8912;52.336;17.172;2022-10-29T15:25:31;17.57;;;6.93;;
17586;SDS011;8912;52.336;17.172;2022-10-29T15:28:07;16.67;;;6.83;;
17586;SDS011;8912;52.336;17.172;2022-10-29T15:30:37;20.97;;;6.87;;
17586;SDS011;8912;52.336;17.172;2022-10-29T15:33:12;14.97;;;6.80;;
17586;SDS011;8912;52.336;17.172;2022-10-29T15:35:48;14.95;;;6.88;;